createdAt,value
2023-05-22T00:00:23.832Z,26.75
2023-05-22T00:01:23.840Z,26.71
2023-05-22T00:02:23.987Z,26.72
2023-05-22T00:03:23.909Z,26.73
2023-05-22T00:04:23.950Z,26.72
2023-05-22T00:05:24.030Z,26.71
2023-05-22T00:06:24.002Z,26.69
2023-05-22T00:07:24.042Z,26.71
2023-05-22T00:08:24.069Z,26.68
2023-05-22T00:09:24.123Z,26.69
2023-05-22T00:10:24.141Z,26.69
2023-05-22T00:11:24.187Z,26.69
2023-05-22T00:12:24.366Z,26.68
2023-05-22T00:13:24.269Z,26.65
2023-05-22T00:14:24.313Z,26.65
2023-05-22T00:15:24.341Z,26.66
2023-05-22T00:16:24.413Z,26.65
2023-05-22T00:17:24.530Z,26.63
2023-05-22T00:18:24.468Z,26.66
2023-05-22T00:19:24.561Z,26.65
2023-05-22T00:20:24.555Z,26.63
2023-05-22T00:21:24.624Z,26.63
2023-05-22T00:22:24.641Z,26.60
2023-05-22T00:23:24.776Z,26.63
2023-05-22T00:24:24.732Z,26.62
2023-05-22T00:25:24.776Z,26.60
2023-05-22T00:26:24.826Z,26.62
2023-05-22T00:27:24.870Z,26.60
2023-05-22T00:28:24.934Z,26.59
2023-05-22T00:29:24.951Z,26.58
2023-05-22T00:30:24.992Z,26.59
2023-05-22T00:31:25.037Z,26.60
2023-05-22T00:32:25.116Z,26.59
2023-05-22T00:33:25.141Z,26.59
2023-05-22T00:34:25.282Z,26.58
2023-05-22T00:35:25.284Z,26.59
2023-05-22T00:36:25.294Z,26.60
2023-05-22T00:37:25.373Z,26.56
2023-05-22T00:38:25.390Z,26.58
2023-05-22T00:39:25.426Z,26.59
2023-05-22T00:40:25.495Z,26.59
2023-05-22T00:41:25.531Z,26.58
2023-05-22T00:42:25.597Z,26.56
2023-05-22T00:43:25.628Z,26.56
2023-05-22T00:44:25.705Z,26.58
2023-05-22T00:45:25.730Z,26.55
2023-05-22T00:46:25.817Z,26.58
2023-05-22T00:47:25.893Z,26.59
2023-05-22T00:48:25.874Z,26.55
2023-05-22T00:49:25.947Z,26.56
2023-05-22T00:50:25.984Z,26.55
2023-05-22T00:51:26.054Z,26.55
2023-05-22T00:52:26.084Z,26.56
2023-05-22T00:53:26.273Z,26.58
2023-05-22T00:54:26.206Z,26.56
2023-05-22T00:55:26.250Z,26.55
2023-05-22T00:56:26.304Z,26.54
2023-05-22T00:57:26.364Z,26.55
2023-05-22T00:58:26.414Z,26.55
2023-05-22T00:59:26.467Z,26.55
2023-05-22T01:00:26.548Z,26.54
2023-05-22T01:01:26.697Z,26.56
2023-05-22T01:02:26.625Z,26.55
2023-05-22T01:03:27.582Z,26.52
2023-05-22T01:04:26.731Z,26.54
2023-05-22T01:05:26.792Z,26.55
2023-05-22T01:06:26.829Z,26.54
2023-05-22T01:07:26.880Z,26.55
2023-05-22T01:08:26.946Z,26.54
2023-05-22T01:09:26.976Z,26.54
2023-05-22T01:10:27.052Z,26.52
2023-05-22T01:11:27.096Z,26.55
2023-05-22T01:12:27.149Z,26.54
2023-05-22T01:13:27.203Z,26.54
2023-05-22T01:14:27.241Z,26.52
2023-05-22T01:15:27.294Z,26.52
2023-05-22T01:16:27.418Z,26.54
2023-05-22T01:17:27.438Z,26.51
2023-05-22T01:18:27.477Z,26.52
2023-05-22T01:19:27.607Z,26.55
2023-05-22T01:20:27.561Z,26.52
2023-05-22T01:21:27.575Z,26.49
2023-05-22T01:22:27.609Z,26.49
2023-05-22T01:23:27.671Z,26.51
2023-05-22T01:24:27.722Z,26.49
2023-05-22T01:25:27.774Z,26.51
2023-05-22T01:26:27.843Z,26.49
2023-05-22T01:27:27.894Z,26.49
2023-05-22T01:28:27.944Z,26.52
2023-05-22T01:29:27.996Z,26.52
2023-05-22T01:30:28.051Z,26.52
2023-05-22T01:31:28.093Z,26.51
2023-05-22T01:32:28.253Z,26.51
2023-05-22T01:33:28.236Z,26.49
2023-05-22T01:34:28.214Z,26.51
2023-05-22T01:35:28.244Z,26.51
2023-05-22T01:36:28.285Z,26.51
2023-05-22T01:37:28.342Z,26.51
2023-05-22T01:38:28.362Z,26.52
2023-05-22T01:39:28.383Z,26.49
2023-05-22T01:40:28.387Z,26.48
2023-05-22T01:41:28.415Z,26.51
2023-05-22T01:42:28.435Z,26.49
2023-05-22T01:43:28.471Z,26.48
2023-05-22T01:44:28.490Z,26.49
2023-05-22T01:45:28.567Z,26.49
2023-05-22T01:46:28.561Z,26.51
2023-05-22T01:47:28.526Z,26.51
2023-05-22T01:48:28.558Z,26.49
2023-05-22T01:49:28.545Z,26.48
2023-05-22T01:50:28.589Z,26.49
2023-05-22T01:51:28.587Z,26.49
2023-05-22T01:52:28.589Z,26.46
2023-05-22T01:53:28.565Z,26.48
2023-05-22T01:54:28.569Z,26.51
2023-05-22T01:55:28.563Z,26.46
2023-05-22T01:56:28.575Z,26.46
2023-05-22T01:57:28.600Z,26.48
2023-05-22T01:58:28.617Z,26.49
2023-05-22T01:59:28.639Z,26.45
2023-05-22T02:00:28.662Z,26.46
2023-05-22T02:01:28.748Z,26.48
2023-05-22T02:02:28.802Z,26.48
2023-05-22T02:03:28.963Z,26.46
2023-05-22T02:04:28.858Z,26.44
2023-05-22T02:05:28.848Z,26.45
2023-05-22T02:06:28.890Z,26.46
2023-05-22T02:07:28.895Z,26.48
2023-05-22T02:08:28.905Z,26.46
2023-05-22T02:09:28.911Z,26.46
2023-05-22T02:10:28.919Z,26.46
2023-05-22T02:11:28.932Z,26.46
2023-05-22T02:12:28.958Z,26.46
2023-05-22T02:13:28.977Z,26.46
2023-05-22T02:14:28.972Z,26.44
2023-05-22T02:15:29.049Z,26.46
2023-05-22T02:16:29.034Z,26.45
2023-05-22T02:17:29.055Z,26.45
2023-05-22T02:18:28.960Z,26.44
2023-05-22T02:19:29.107Z,26.42
2023-05-22T02:20:28.980Z,26.45
2023-05-22T02:21:28.962Z,26.44
2023-05-22T02:22:28.980Z,26.44
2023-05-22T02:23:29.004Z,26.45
2023-05-22T02:24:29.083Z,26.44
2023-05-22T02:25:29.108Z,26.44
2023-05-22T02:26:29.182Z,26.42
2023-05-22T02:27:29.186Z,26.44
2023-05-22T02:28:29.230Z,26.45
2023-05-22T02:29:29.271Z,26.44
2023-05-22T02:30:29.297Z,26.44
2023-05-22T02:31:29.371Z,26.48
2023-05-22T02:32:29.432Z,26.42
2023-05-22T02:33:29.404Z,26.44
2023-05-22T02:34:29.435Z,26.44
2023-05-22T02:35:29.522Z,26.41
2023-05-22T02:36:29.533Z,26.44
2023-05-22T02:37:29.528Z,26.41
2023-05-22T02:38:29.539Z,26.41
2023-05-22T02:39:29.536Z,26.44
2023-05-22T02:40:29.528Z,26.45
2023-05-22T02:41:29.551Z,26.42
2023-05-22T02:42:29.585Z,26.42
2023-05-22T02:43:29.568Z,26.44
2023-05-22T02:44:29.565Z,26.41
2023-05-22T02:45:29.554Z,26.42
2023-05-22T02:46:29.633Z,26.41
2023-05-22T02:47:29.595Z,26.42
2023-05-22T02:48:29.604Z,26.38
2023-05-22T02:49:29.575Z,26.42
2023-05-22T02:50:29.567Z,26.44
2023-05-22T02:51:29.587Z,26.39
2023-05-22T02:52:29.636Z,26.39
2023-05-22T02:53:29.640Z,26.39
2023-05-22T02:54:29.634Z,26.41
2023-05-22T02:55:29.698Z,26.39
2023-05-22T02:56:29.675Z,26.41
2023-05-22T02:57:29.690Z,26.42
2023-05-22T02:58:29.704Z,26.42
2023-05-22T02:59:29.714Z,26.41
2023-05-22T03:00:29.722Z,26.39
2023-05-22T03:01:29.748Z,26.39
2023-05-22T03:02:29.904Z,26.39
2023-05-22T03:03:29.831Z,26.37
2023-05-22T03:04:29.765Z,26.39
2023-05-22T03:05:29.752Z,26.38
2023-05-22T03:06:29.754Z,26.37
2023-05-22T03:07:29.932Z,26.39
2023-05-22T03:08:29.808Z,26.39
2023-05-22T03:09:29.802Z,26.38
2023-05-22T03:10:29.797Z,26.35
2023-05-22T03:11:29.780Z,26.38
2023-05-22T03:12:29.783Z,26.37
2023-05-22T03:13:29.755Z,26.38
2023-05-22T03:14:29.732Z,26.38
2023-05-22T03:15:29.723Z,26.38
2023-05-22T03:16:29.790Z,26.37
2023-05-22T03:17:29.718Z,26.38
2023-05-22T03:18:29.692Z,26.37
2023-05-22T03:19:29.759Z,26.39
2023-05-22T03:20:29.674Z,26.37
2023-05-22T03:21:29.683Z,26.37
2023-05-22T03:22:29.680Z,26.37
2023-05-22T03:23:29.695Z,26.39
2023-05-22T03:24:29.706Z,26.35
2023-05-22T03:25:29.687Z,26.35
2023-05-22T03:26:29.695Z,26.37
2023-05-22T03:27:29.690Z,26.39
2023-05-22T03:28:29.707Z,26.34
2023-05-22T03:29:29.708Z,26.37
2023-05-22T03:30:29.718Z,26.37
2023-05-22T03:31:29.679Z,26.37
2023-05-22T03:32:29.707Z,26.37
2023-05-22T03:33:29.733Z,26.37
2023-05-22T03:34:29.672Z,26.38
2023-05-22T03:35:29.686Z,26.35
2023-05-22T03:36:32.357Z,26.34
2023-05-22T03:37:29.661Z,26.35
2023-05-22T03:38:29.628Z,26.37
2023-05-22T03:39:29.613Z,26.35
2023-05-22T03:40:29.605Z,26.37
2023-05-22T03:41:29.573Z,26.35
2023-05-22T03:42:29.550Z,26.37
2023-05-22T03:43:29.544Z,26.32
2023-05-22T03:44:29.537Z,26.37
2023-05-22T03:45:29.513Z,26.35
2023-05-22T03:46:29.707Z,26.37
2023-05-22T03:47:29.469Z,26.34
2023-05-22T03:48:29.450Z,26.34
2023-05-22T03:49:29.425Z,26.32
2023-05-22T03:50:29.410Z,26.34
2023-05-22T03:51:29.389Z,26.34
2023-05-22T03:52:29.373Z,26.32
2023-05-22T03:53:29.350Z,26.32
2023-05-22T03:54:29.346Z,26.37
2023-05-22T03:55:29.320Z,26.34
2023-05-22T03:56:29.381Z,26.34
2023-05-22T03:57:29.285Z,26.35
2023-05-22T03:58:29.263Z,26.34
2023-05-22T03:59:29.241Z,26.35
2023-05-22T04:00:29.229Z,26.35
2023-05-22T04:01:29.231Z,26.34
2023-05-22T04:02:29.284Z,26.34
2023-05-22T04:03:29.281Z,26.37
2023-05-22T04:04:29.184Z,26.37
2023-05-22T04:05:29.287Z,26.35
2023-05-22T04:06:29.136Z,26.35
2023-05-22T04:07:29.139Z,26.35
2023-05-22T04:08:29.122Z,26.34
2023-05-22T04:09:29.105Z,26.35
2023-05-22T04:10:29.084Z,26.37
2023-05-22T04:11:29.076Z,26.34
2023-05-22T04:12:29.138Z,26.32
2023-05-22T04:13:29.019Z,26.32
2023-05-22T04:14:29.018Z,26.35
2023-05-22T04:15:28.990Z,26.37
2023-05-22T04:16:29.194Z,26.35
2023-05-22T04:17:29.026Z,26.37
2023-05-22T04:18:28.937Z,26.34
2023-05-22T04:19:29.005Z,26.35
2023-05-22T04:20:28.907Z,26.35
2023-05-22T04:21:28.892Z,26.34
2023-05-22T04:22:28.883Z,26.37
2023-05-22T04:23:28.868Z,26.37
2023-05-22T04:24:28.835Z,26.37
2023-05-22T04:25:28.821Z,26.37
2023-05-22T04:26:28.803Z,26.35
2023-05-22T04:27:28.816Z,26.35
2023-05-22T04:28:28.858Z,26.35
2023-05-22T04:29:28.760Z,26.37
2023-05-22T04:30:28.745Z,26.37
2023-05-22T04:31:28.757Z,26.37
2023-05-22T04:32:28.724Z,26.37
2023-05-22T04:33:28.688Z,26.35
2023-05-22T04:34:28.669Z,26.35
2023-05-22T04:35:28.648Z,26.37
2023-05-22T04:36:28.632Z,26.35
2023-05-22T04:37:28.620Z,26.37
2023-05-22T04:38:28.599Z,26.37
2023-05-22T04:39:28.583Z,26.37
2023-05-22T04:40:28.560Z,26.38
2023-05-22T04:41:28.570Z,26.38
2023-05-22T04:42:28.548Z,26.38
2023-05-22T04:43:28.514Z,26.37
2023-05-22T04:44:28.574Z,26.39
2023-05-22T04:45:28.470Z,26.39
2023-05-22T04:46:28.479Z,26.38
2023-05-22T04:47:28.444Z,26.38
2023-05-22T04:48:28.431Z,26.38
2023-05-22T04:49:28.404Z,26.37
2023-05-22T04:50:28.392Z,26.39
2023-05-22T04:51:28.415Z,26.38
2023-05-22T04:52:28.407Z,26.39
2023-05-22T04:53:28.392Z,26.39
2023-05-22T04:54:28.415Z,26.37
2023-05-22T04:55:28.423Z,26.41
2023-05-22T04:56:36.401Z,26.39
2023-05-22T04:57:28.427Z,26.38
2023-05-22T04:58:28.388Z,26.38
2023-05-22T04:59:28.368Z,26.39
2023-05-22T05:00:28.375Z,26.41
2023-05-22T05:01:29.090Z,26.39
2023-05-22T05:02:28.356Z,26.39
2023-05-22T05:03:28.358Z,26.39
2023-05-22T05:04:28.276Z,26.37
2023-05-22T05:05:28.241Z,26.41
2023-05-22T05:06:28.273Z,26.41
2023-05-22T05:07:28.250Z,26.39
2023-05-22T05:08:28.219Z,26.41
2023-05-22T05:09:28.170Z,26.42
2023-05-22T05:10:28.222Z,26.39
2023-05-22T05:11:28.186Z,26.41
2023-05-22T05:12:28.146Z,26.39
2023-05-22T05:13:28.066Z,26.42
2023-05-22T05:14:28.517Z,26.41
2023-05-22T05:15:28.025Z,26.41
2023-05-22T05:16:28.086Z,26.41
2023-05-22T05:17:28.089Z,26.45
2023-05-22T05:18:27.973Z,26.42
2023-05-22T05:19:28.124Z,26.42
2023-05-22T05:20:27.945Z,26.41
2023-05-22T05:21:28.173Z,26.39
2023-05-22T05:22:27.889Z,26.42
2023-05-22T05:23:27.862Z,26.41
2023-05-22T05:24:27.838Z,26.42
2023-05-22T05:25:28.830Z,26.41
2023-05-22T05:26:27.856Z,26.42
2023-05-22T05:27:27.791Z,26.45
2023-05-22T05:28:27.782Z,26.48
2023-05-22T05:29:27.760Z,26.44
2023-05-22T05:30:27.735Z,26.45
2023-05-22T05:31:28.038Z,26.48
2023-05-22T05:32:27.755Z,26.46
2023-05-22T05:33:27.672Z,26.48
2023-05-22T05:34:27.674Z,26.49
2023-05-22T05:35:27.717Z,26.49
2023-05-22T05:36:27.733Z,26.51
2023-05-22T05:37:27.764Z,26.49
2023-05-22T05:38:27.804Z,26.49
2023-05-22T05:39:27.917Z,26.52
2023-05-22T05:40:27.906Z,26.49
2023-05-22T05:41:27.941Z,26.51
2023-05-22T05:42:28.174Z,26.51
2023-05-22T05:43:28.066Z,26.49
2023-05-22T05:44:28.584Z,26.52
2023-05-22T05:45:28.085Z,26.55
2023-05-22T05:46:28.155Z,26.54
2023-05-22T05:47:28.734Z,26.54
2023-05-22T05:48:28.236Z,26.55
2023-05-22T05:49:28.622Z,26.54
2023-05-22T05:50:28.307Z,26.55
2023-05-22T05:51:28.337Z,26.56
2023-05-22T05:52:28.604Z,26.58
2023-05-22T05:53:28.411Z,26.58
2023-05-22T05:54:28.428Z,26.59
2023-05-22T05:55:44.046Z,26.56
2023-05-22T05:56:35.955Z,26.46
2023-05-22T05:57:35.817Z,26.54
2023-05-22T05:58:31.570Z,26.54
2023-05-22T05:59:28.355Z,26.56
2023-05-22T06:00:43.969Z,26.58
2023-05-22T06:02:35.755Z,26.59
2023-05-22T06:06:54.869Z,26.58
2023-05-22T06:08:54.851Z,26.59
2023-05-22T06:11:03.072Z,26.60
2023-05-22T06:11:47.482Z,26.60
2023-05-22T06:12:47.494Z,26.60
2023-05-22T06:14:03.222Z,26.62
2023-05-22T06:14:48.566Z,26.60
2023-05-22T06:15:47.576Z,26.60
2023-05-22T06:16:47.586Z,26.63
2023-05-22T06:17:47.727Z,26.59
2023-05-22T06:18:47.679Z,26.60
2023-05-22T06:19:47.750Z,26.60
2023-05-22T06:20:47.617Z,26.59
2023-05-22T06:21:54.994Z,26.60
2023-05-22T06:22:48.660Z,26.62
2023-05-22T06:23:47.636Z,26.60
2023-05-22T06:24:47.663Z,26.60
2023-05-22T06:25:47.656Z,26.60
2023-05-22T06:26:48.104Z,26.63
2023-05-22T06:27:47.693Z,26.60
2023-05-22T06:28:47.705Z,26.59
2023-05-22T06:29:47.722Z,26.60
2023-05-22T06:30:48.054Z,26.60
2023-05-22T06:31:47.788Z,26.60
2023-05-22T06:32:48.214Z,26.60
2023-05-22T06:33:51.066Z,26.59
2023-05-22T06:34:47.782Z,26.59
2023-05-22T06:35:47.795Z,26.60
2023-05-22T06:36:48.103Z,26.62
2023-05-22T06:37:47.816Z,26.62
2023-05-22T06:38:51.050Z,26.60
2023-05-22T06:40:03.457Z,26.60
2023-05-22T06:40:47.827Z,26.59
2023-05-22T06:41:47.841Z,26.60
2023-05-22T06:42:47.860Z,26.59
2023-05-22T06:43:47.949Z,26.60
2023-05-22T06:44:47.867Z,26.60
2023-05-22T06:45:47.966Z,26.60
2023-05-22T06:46:47.880Z,26.63
2023-05-22T06:47:48.103Z,26.62
2023-05-22T06:48:47.919Z,26.62
2023-05-22T06:49:48.910Z,26.60
2023-05-22T06:50:47.919Z,26.60
2023-05-22T06:51:47.945Z,26.62
2023-05-22T06:52:48.077Z,26.62
2023-05-22T06:53:47.954Z,26.60
2023-05-22T06:54:47.998Z,26.60
2023-05-22T06:55:47.972Z,26.59
2023-05-22T06:56:48.030Z,26.63
2023-05-22T06:57:48.111Z,26.60
2023-05-22T06:58:48.011Z,26.62
2023-05-22T06:59:48.205Z,26.63
2023-05-22T07:00:48.298Z,26.62
2023-05-22T07:02:03.700Z,26.60
2023-05-22T07:02:48.219Z,26.62
2023-05-22T07:03:48.088Z,26.63
2023-05-22T07:04:48.081Z,26.63
2023-05-22T07:05:48.095Z,26.63
2023-05-22T07:06:49.085Z,26.63
2023-05-22T07:07:48.107Z,26.60
2023-05-22T07:08:51.375Z,26.62
2023-05-22T07:09:48.329Z,26.65
2023-05-22T07:10:48.828Z,26.62
2023-05-22T07:11:48.129Z,26.65
2023-05-22T07:12:48.592Z,26.66
2023-05-22T07:13:48.170Z,26.65
2023-05-22T07:14:48.178Z,26.63
2023-05-22T07:15:48.203Z,26.65
2023-05-22T07:16:48.287Z,26.66
2023-05-22T07:17:48.245Z,26.65
2023-05-22T07:18:48.597Z,26.66
2023-05-22T07:19:48.231Z,26.66
2023-05-22T07:20:48.266Z,26.66
2023-05-22T07:21:48.257Z,26.65
2023-05-22T07:22:48.264Z,26.62
2023-05-22T07:23:48.586Z,26.65
2023-05-22T07:24:48.288Z,26.66
2023-05-22T07:25:48.290Z,26.66
2023-05-22T07:26:48.422Z,26.68
2023-05-22T07:27:48.312Z,26.68
2023-05-22T07:28:48.587Z,26.68
2023-05-22T07:29:48.325Z,26.68
2023-05-22T07:30:48.333Z,26.68
2023-05-22T07:31:48.384Z,26.66
2023-05-22T07:32:48.429Z,26.69
2023-05-22T07:33:48.656Z,26.66
2023-05-22T07:34:55.881Z,26.68
2023-05-22T07:37:48.523Z,26.65
2023-05-22T07:38:56.028Z,26.66
2023-05-22T07:39:51.730Z,26.69
2023-05-22T07:40:48.512Z,26.66
2023-05-22T07:43:04.188Z,26.75
2023-05-22T07:43:51.887Z,26.66
2023-05-22T07:44:55.996Z,26.56
2023-05-22T07:45:51.785Z,26.66
2023-05-22T07:46:48.577Z,26.68
2023-05-22T07:47:49.759Z,26.73
2023-05-22T07:48:48.605Z,26.76
2023-05-22T07:50:48.538Z,26.83
2023-05-22T07:52:04.213Z,26.86
2023-05-22T07:52:51.853Z,26.90
2023-05-22T07:53:51.753Z,26.93
2023-05-22T07:54:48.596Z,26.97
2023-05-22T07:55:49.546Z,26.99
2023-05-22T07:56:48.578Z,27.04
2023-05-22T07:57:48.560Z,27.07
2023-05-22T07:58:48.740Z,27.08
2023-05-22T07:59:48.573Z,27.11
2023-05-22T08:00:48.582Z,27.13
2023-05-22T08:01:48.570Z,27.18
2023-05-22T08:02:48.809Z,27.21
2023-05-22T08:03:48.754Z,27.20
2023-05-22T08:04:48.644Z,27.23
2023-05-22T08:05:48.927Z,27.27
2023-05-22T08:06:48.583Z,27.30
2023-05-22T08:07:48.608Z,27.30
2023-05-22T08:08:48.607Z,27.33
2023-05-22T08:09:48.595Z,27.34
2023-05-22T08:11:03.258Z,27.37
2023-05-22T08:11:48.633Z,27.38
2023-05-22T08:12:48.606Z,27.40
2023-05-22T08:13:49.655Z,27.42
2023-05-22T08:14:48.632Z,27.45
2023-05-22T08:15:48.625Z,27.45
2023-05-22T08:16:48.701Z,27.45
2023-05-22T08:17:48.673Z,27.45
2023-05-22T08:18:49.144Z,27.48
2023-05-22T08:19:48.714Z,27.51
2023-05-22T08:20:48.653Z,27.51
2023-05-22T08:21:48.723Z,27.52
2023-05-22T08:22:56.251Z,27.53
2023-05-22T08:23:49.107Z,27.56
2023-05-22T08:24:51.981Z,27.58
2023-05-22T08:25:48.820Z,27.58
2023-05-22T08:26:48.796Z,27.59
2023-05-22T08:27:48.793Z,27.59
2023-05-22T08:28:49.106Z,27.59
2023-05-22T08:29:48.803Z,27.59
2023-05-22T08:30:48.935Z,27.62
2023-05-22T08:31:48.863Z,27.65
2023-05-22T08:32:48.849Z,27.65
2023-05-22T08:33:49.109Z,27.63
2023-05-22T08:34:48.831Z,27.68
2023-05-22T08:35:48.819Z,27.69
2023-05-22T08:36:48.812Z,27.70
2023-05-22T08:37:48.784Z,27.72
2023-05-22T08:38:49.109Z,27.73
2023-05-22T08:39:48.785Z,27.69
2023-05-22T08:40:48.993Z,27.72
2023-05-22T08:41:48.793Z,27.73
2023-05-22T08:42:48.813Z,27.72
2023-05-22T08:43:49.126Z,27.70
2023-05-22T08:45:20.583Z,27.76
2023-05-22T08:45:48.760Z,27.72
2023-05-22T08:46:48.779Z,27.72
2023-05-22T08:47:49.164Z,27.76
2023-05-22T08:48:48.748Z,27.76
2023-05-22T08:49:48.766Z,27.79
2023-05-22T08:50:48.758Z,27.82
2023-05-22T08:51:48.740Z,27.80
2023-05-22T08:52:49.115Z,27.83
2023-05-22T08:53:48.733Z,27.87
2023-05-22T08:54:48.739Z,27.87
2023-05-22T08:55:48.738Z,27.89
2023-05-22T08:56:56.112Z,27.92
2023-05-22T08:57:49.111Z,27.94
2023-05-22T08:58:48.749Z,27.89
2023-05-22T08:59:48.764Z,27.93
2023-05-22T09:00:48.760Z,27.94
2023-05-22T09:01:48.781Z,27.94
2023-05-22T09:02:49.245Z,27.93
2023-05-22T09:03:49.151Z,27.92
2023-05-22T09:04:49.805Z,27.96
2023-05-22T09:05:48.753Z,27.99
2023-05-22T09:06:49.119Z,27.97
2023-05-22T09:07:49.128Z,28.00
2023-05-22T09:08:51.388Z,28.01
2023-05-22T09:09:49.125Z,28.03
2023-05-22T09:10:48.762Z,28.03
2023-05-22T09:11:56.521Z,28.03
2023-05-22T09:12:48.779Z,28.03
2023-05-22T09:13:48.779Z,28.04
2023-05-22T09:14:53.432Z,28.04
2023-05-22T09:15:48.790Z,28.08
2023-05-22T09:16:48.833Z,28.07
2023-05-22T09:17:48.809Z,28.08
2023-05-22T09:18:48.896Z,28.00
2023-05-22T09:19:48.800Z,28.04
2023-05-22T09:20:49.170Z,28.00
2023-05-22T09:21:49.137Z,28.01
2023-05-22T09:22:48.806Z,28.03
2023-05-22T09:24:04.412Z,28.01
2023-05-22T09:24:48.823Z,28.01
2023-05-22T09:25:49.132Z,27.99
2023-05-22T09:26:49.135Z,27.97
2023-05-22T09:27:48.825Z,27.92
2023-05-22T09:28:49.140Z,27.93
2023-05-22T09:29:48.836Z,27.90
2023-05-22T09:30:56.294Z,27.89
2023-05-22T09:31:48.961Z,27.87
2023-05-22T09:32:48.889Z,27.89
2023-05-22T09:33:52.378Z,27.89
2023-05-22T09:34:48.884Z,27.85
2023-05-22T09:35:49.151Z,27.85
2023-05-22T09:36:48.895Z,27.83
2023-05-22T09:37:56.302Z,27.85
2023-05-22T09:39:56.383Z,27.82
2023-05-22T09:40:49.146Z,27.82
2023-05-22T09:44:50.004Z,27.86
2023-05-22T09:45:49.937Z,27.85
2023-05-22T09:46:50.175Z,27.87
2023-05-22T09:47:48.979Z,27.85
2023-05-22T09:48:52.144Z,27.86
2023-05-22T09:49:48.967Z,27.85
2023-05-22T09:50:48.952Z,27.85
2023-05-22T09:51:49.275Z,27.85
2023-05-22T09:52:48.934Z,27.85
2023-05-22T09:53:49.146Z,27.87
2023-05-22T09:54:49.947Z,27.85
2023-05-22T09:55:48.954Z,27.87
2023-05-22T09:56:48.967Z,27.85
2023-05-22T09:57:49.146Z,27.85
2023-05-22T09:58:52.148Z,27.86
2023-05-22T09:59:48.956Z,27.85
2023-05-22T10:00:48.986Z,27.87
2023-05-22T10:01:49.065Z,27.87
2023-05-22T10:02:49.012Z,27.87
2023-05-22T10:03:49.629Z,27.89
2023-05-22T10:04:49.068Z,27.87
2023-05-22T10:05:49.010Z,27.87
2023-05-22T10:06:48.921Z,27.89
2023-05-22T10:07:49.150Z,27.89
2023-05-22T10:08:49.014Z,27.89
2023-05-22T10:09:49.317Z,27.87
2023-05-22T10:10:48.912Z,27.90
2023-05-22T10:11:48.911Z,27.92
2023-05-22T10:12:48.909Z,27.80
2023-05-22T10:13:48.908Z,27.83
2023-05-22T10:14:49.156Z,27.87
2023-05-22T10:15:48.975Z,27.83
2023-05-22T10:16:48.903Z,27.89
2023-05-22T10:17:49.226Z,27.89
2023-05-22T10:18:49.127Z,27.90
2023-05-22T10:19:49.236Z,27.90
2023-05-22T10:20:49.162Z,27.90
2023-05-22T10:21:49.332Z,27.89
2023-05-22T10:22:49.265Z,27.86
2023-05-22T10:23:49.328Z,27.87
2023-05-22T10:24:50.669Z,27.83
2023-05-22T10:25:49.441Z,27.85
2023-05-22T10:26:50.493Z,27.83
2023-05-22T10:27:49.655Z,27.85
2023-05-22T10:28:49.646Z,27.82
2023-05-22T10:29:49.668Z,27.82
2023-05-22T10:30:49.728Z,27.82
2023-05-22T10:31:49.797Z,27.79
2023-05-22T10:32:50.207Z,27.77
2023-05-22T10:33:50.007Z,27.77
2023-05-22T10:34:49.981Z,27.76
2023-05-22T10:35:51.036Z,27.73
2023-05-22T10:36:50.100Z,27.75
2023-05-22T10:37:50.310Z,27.72
2023-05-22T10:38:50.198Z,27.73
2023-05-22T10:39:50.666Z,27.70
2023-05-22T10:40:50.319Z,27.70
2023-05-22T10:41:50.382Z,27.70
2023-05-22T10:42:50.440Z,27.69
2023-05-22T10:43:50.514Z,27.69
2023-05-22T10:44:50.567Z,27.69
2023-05-22T10:45:50.704Z,27.69
2023-05-22T10:46:50.705Z,27.70
2023-05-22T10:47:50.806Z,27.66
2023-05-22T10:48:50.852Z,27.66
2023-05-22T10:49:51.185Z,27.66
2023-05-22T10:50:50.960Z,27.69
2023-05-22T10:51:51.021Z,27.66
2023-05-22T10:52:51.082Z,27.66
2023-05-22T10:53:51.294Z,27.65
2023-05-22T10:54:51.218Z,27.62
2023-05-22T10:55:51.298Z,27.63
2023-05-22T10:56:51.357Z,27.65
2023-05-22T10:57:51.408Z,27.62
2023-05-22T10:58:54.687Z,27.65
2023-05-22T10:59:51.480Z,27.62
2023-05-22T11:00:51.473Z,27.63
2023-05-22T11:01:51.536Z,27.62
2023-05-22T11:02:54.035Z,27.60
2023-05-22T11:03:52.671Z,27.62
2023-05-22T11:04:51.548Z,27.62
2023-05-22T11:06:23.289Z,27.62
2023-05-22T11:06:51.504Z,27.60
2023-05-22T11:07:51.708Z,27.62
2023-05-22T11:08:51.562Z,27.60
2023-05-22T11:09:59.041Z,27.60
2023-05-22T11:10:51.520Z,27.59
2023-05-22T11:11:51.535Z,27.60
2023-05-22T11:12:51.680Z,27.58
2023-05-22T11:13:51.549Z,27.60
2023-05-22T11:14:51.687Z,27.59
2023-05-22T11:15:51.563Z,27.59
2023-05-22T11:16:51.606Z,27.58
2023-05-22T11:17:51.653Z,27.60
2023-05-22T11:18:51.595Z,27.59
2023-05-22T11:19:51.711Z,27.59
2023-05-22T11:20:52.553Z,27.59
2023-05-22T11:21:51.555Z,27.62
2023-05-22T11:22:51.680Z,27.59
2023-05-22T11:23:51.554Z,27.59
2023-05-22T11:24:51.686Z,27.59
2023-05-22T11:25:51.685Z,27.58
2023-05-22T11:26:52.545Z,27.60
2023-05-22T11:27:51.543Z,27.59
2023-05-22T11:28:51.588Z,27.59
2023-05-22T11:29:51.707Z,27.60
2023-05-22T11:30:51.740Z,27.62
2023-05-22T11:31:52.787Z,27.60
2023-05-22T11:32:52.885Z,27.59
2023-05-22T11:33:52.196Z,27.59
2023-05-22T11:34:51.983Z,27.58
2023-05-22T11:35:52.053Z,27.59
2023-05-22T11:36:52.102Z,27.59
2023-05-22T11:37:52.178Z,27.60
2023-05-22T11:38:52.270Z,27.59
2023-05-22T11:39:52.450Z,27.59
2023-05-22T11:40:52.423Z,27.59
2023-05-22T11:41:52.563Z,27.59
2023-05-22T11:42:52.505Z,27.60
2023-05-22T11:43:52.559Z,27.60
2023-05-22T11:44:52.633Z,27.60
2023-05-22T11:45:52.691Z,27.60
2023-05-22T11:46:52.815Z,27.60
2023-05-22T11:47:52.906Z,27.62
2023-05-22T11:48:54.218Z,27.59
2023-05-22T11:49:52.978Z,27.62
2023-05-22T11:50:53.054Z,27.62
2023-05-22T11:51:53.105Z,27.59
2023-05-22T11:52:53.177Z,27.60
2023-05-22T11:53:53.691Z,27.59
2023-05-22T11:54:53.295Z,27.60
2023-05-22T11:55:53.386Z,27.60
2023-05-22T11:56:53.422Z,27.62
2023-05-22T11:57:53.867Z,27.63
2023-05-22T11:58:53.545Z,27.65
2023-05-22T11:59:53.648Z,27.62
2023-05-22T12:00:53.759Z,27.62
2023-05-22T12:01:54.194Z,27.63
2023-05-22T12:02:54.177Z,27.62
2023-05-22T12:03:54.116Z,27.63
2023-05-22T12:04:53.917Z,27.60
2023-05-22T12:05:54.002Z,27.62
2023-05-22T12:06:54.222Z,27.63
2023-05-22T12:07:54.095Z,27.60
2023-05-22T12:08:54.193Z,27.63
2023-05-22T12:09:57.457Z,27.63
2023-05-22T12:10:57.888Z,27.62
2023-05-22T12:11:54.224Z,27.65
2023-05-22T12:12:54.898Z,27.63
2023-05-22T12:13:54.812Z,27.63
2023-05-22T12:14:54.212Z,27.62
2023-05-22T12:15:54.209Z,27.63
2023-05-22T12:16:54.255Z,27.62
2023-05-22T12:17:54.237Z,27.63
2023-05-22T12:18:54.765Z,27.63
2023-05-22T12:19:54.187Z,27.62
2023-05-22T12:20:54.191Z,27.65
2023-05-22T12:21:54.199Z,27.65
2023-05-22T12:22:54.184Z,27.63
2023-05-22T12:23:54.875Z,27.65
2023-05-22T12:24:54.291Z,27.65
2023-05-22T12:25:54.348Z,27.63
2023-05-22T12:26:54.413Z,27.65
2023-05-22T12:27:54.467Z,27.65
2023-05-22T12:28:54.700Z,27.66
2023-05-22T12:29:54.719Z,27.66
2023-05-22T12:30:54.702Z,27.65
2023-05-22T12:31:54.739Z,27.66
2023-05-22T12:32:55.203Z,27.66
2023-05-22T12:33:54.844Z,27.66
2023-05-22T12:34:54.902Z,27.63
2023-05-22T12:35:54.959Z,27.63
2023-05-22T12:36:55.047Z,27.65
2023-05-22T12:37:55.085Z,27.63
2023-05-22T12:38:55.150Z,27.63
2023-05-22T12:39:55.248Z,27.65
2023-05-22T12:40:55.256Z,27.65
2023-05-22T12:41:55.317Z,27.65
2023-05-22T12:42:55.371Z,27.66
2023-05-22T12:43:55.445Z,27.65
2023-05-22T12:44:55.566Z,27.63
2023-05-22T12:45:55.719Z,27.62
2023-05-22T12:46:55.660Z,27.62
2023-05-22T12:47:55.769Z,27.65
2023-05-22T12:48:55.755Z,27.62
2023-05-22T12:49:55.831Z,27.65
2023-05-22T12:50:55.871Z,27.60
2023-05-22T12:51:55.939Z,27.62
2023-05-22T12:52:56.208Z,27.63
2023-05-22T12:53:56.077Z,27.65
2023-05-22T12:54:56.125Z,27.65
2023-05-22T12:55:56.235Z,27.62
2023-05-22T12:56:56.256Z,27.65
2023-05-22T12:57:56.747Z,27.60
2023-05-22T12:58:56.373Z,27.59
2023-05-22T12:59:56.430Z,27.59
2023-05-22T13:00:56.489Z,27.56
2023-05-22T13:01:57.004Z,27.56
2023-05-22T13:02:56.750Z,27.56
2023-05-22T13:03:56.680Z,27.59
2023-05-22T13:04:56.784Z,27.59
2023-05-22T13:05:56.812Z,27.62
2023-05-22T13:06:57.210Z,27.59